Archival Weather

Heathrow

London, United Kingdom (EGLL)

Report from: Sunday, March 19, 2023 9:50 AM GMT
Current time: Sunday, July 14, 2024 2:10 AM BST

Current weather – Weather history – Daily summaries
Weather forecast

Temperature9.0°C (48.2°F)
Wind chill6.7°C (44.1°F)
Dew point3.0°C (37.4°F)
Winds 8 kts (4.1 m/s, 9.2 mph) Vrb
Winds variableWinds variable from West-Northwest (290°) to North (350°)
Visibility6.2 mi. (10 km)
Clouds Ceiling: Overcast 2,800 ft. (853 m)
Altimeter30.00 in.Hg (1016 mB)
Relative humidity66 %
Density altitude-699 ft. (-213 m)
Remarks Fully automated report
No significant changes expected in the next two hours
Flight conditions Marginal Visual Meteorological Conditions
Raw dataEGLL 190950Z AUTO 31008KT 290V350 9999 OVC028 09/03 Q1016 NOSIG
An error has occurred. This application may no longer respond until reloaded. Reload 🗙